sensor_id;sensor_type;location;lat;lon;timestamp;P1;durP1;ratioP1;P2;durP2;ratioP2
3924;SDS011;1977;52.274;10.518;2023-10-13T00:00:46;8.87;;;7.97;;
3924;SDS011;1977;52.274;10.518;2023-10-13T00:03:13;8.70;;;7.80;;
3924;SDS011;1977;52.274;10.518;2023-10-13T00:05:45;11.37;;;8.47;;
3924;SDS011;1977;52.274;10.518;2023-10-13T00:08:12;9.80;;;8.80;;
3924;SDS011;1977;52.274;10.518;2023-10-13T00:10:39;11.33;;;8.90;;
3924;SDS011;1977;52.274;10.518;2023-10-13T00:13:06;11.47;;;9.77;;
3924;SDS011;1977;52.274;10.518;2023-10-13T00:15:38;10.47;;;8.70;;
3924;SDS011;1977;52.274;10.518;2023-10-13T00:18:11;9.50;;;8.57;;
3924;SDS011;1977;52.274;10.518;2023-10-13T00:20:39;10.40;;;9.10;;
3924;SDS011;1977;52.274;10.518;2023-10-13T00:23:14;12.50;;;8.07;;
3924;SDS011;1977;52.274;10.518;2023-10-13T00:25:45;10.77;;;9.40;;
3924;SDS011;1977;52.274;10.518;2023-10-13T00:28:21;12.40;;;9.47;;
3924;SDS011;1977;52.274;10.518;2023-10-13T00:30:49;10.17;;;9.10;;
3924;SDS011;1977;52.274;10.518;2023-10-13T00:33:17;9.93;;;8.50;;
3924;SDS011;1977;52.274;10.518;2023-10-13T00:35:47;9.17;;;8.27;;
3924;SDS011;1977;52.274;10.518;2023-10-13T00:38:18;11.73;;;9.70;;
3924;SDS011;1977;52.274;10.518;2023-10-13T00:40:45;10.50;;;8.80;;
3924;SDS011;1977;52.274;10.518;2023-10-13T00:43:17;10.50;;;9.00;;
3924;SDS011;1977;52.274;10.518;2023-10-13T00:46:00;11.03;;;8.30;;
3924;SDS011;1977;52.274;10.518;2023-10-13T00:48:38;11.67;;;9.50;;
3924;SDS011;1977;52.274;10.518;2023-10-13T00:51:16;10.20;;;8.40;;
3924;SDS011;1977;52.274;10.518;2023-10-13T00:53:58;10.13;;;9.13;;
3924;SDS011;1977;52.274;10.518;2023-10-13T00:56:27;12.10;;;9.03;;
3924;SDS011;1977;52.274;10.518;2023-10-13T00:58:55;10.97;;;9.60;;
3924;SDS011;1977;52.274;10.518;2023-10-13T01:01:23;11.20;;;9.53;;
3924;SDS011;1977;52.274;10.518;2023-10-13T01:03:55;11.13;;;8.40;;
3924;SDS011;1977;52.274;10.518;2023-10-13T01:06:24;10.13;;;9.13;;
3924;SDS011;1977;52.274;10.518;2023-10-13T01:08:57;10.47;;;9.47;;
3924;SDS011;1977;52.274;10.518;2023-10-13T01:11:36;10.20;;;9.20;;
3924;SDS011;1977;52.274;10.518;2023-10-13T01:14:03;11.63;;;9.67;;
3924;SDS011;1977;52.274;10.518;2023-10-13T01:16:31;9.67;;;8.67;;
3924;SDS011;1977;52.274;10.518;2023-10-13T01:18:58;10.57;;;9.47;;
3924;SDS011;1977;52.274;10.518;2023-10-13T01:21:25;11.20;;;9.50;;
3924;SDS011;1977;52.274;10.518;2023-10-13T01:23:55;10.70;;;9.13;;
3924;SDS011;1977;52.274;10.518;2023-10-13T01:26:21;9.33;;;8.40;;
3924;SDS011;1977;52.274;10.518;2023-10-13T01:28:49;12.80;;;9.70;;
3924;SDS011;1977;52.274;10.518;2023-10-13T01:31:15;10.40;;;9.40;;
3924;SDS011;1977;52.274;10.518;2023-10-13T01:33:52;10.30;;;9.20;;
3924;SDS011;1977;52.274;10.518;2023-10-13T01:36:19;10.23;;;8.87;;
3924;SDS011;1977;52.274;10.518;2023-10-13T01:38:47;9.93;;;9.03;;
3924;SDS011;1977;52.274;10.518;2023-10-13T01:41:14;9.00;;;8.17;;
3924;SDS011;1977;52.274;10.518;2023-10-13T01:43:41;8.13;;;7.43;;
3924;SDS011;1977;52.274;10.518;2023-10-13T01:46:07;10.17;;;9.10;;
3924;SDS011;1977;52.274;10.518;2023-10-13T01:48:38;7.97;;;7.20;;
3924;SDS011;1977;52.274;10.518;2023-10-13T01:51:05;10.00;;;8.57;;
3924;SDS011;1977;52.274;10.518;2023-10-13T01:53:35;8.93;;;8.07;;
3924;SDS011;1977;52.274;10.518;2023-10-13T01:56:01;8.93;;;8.03;;
3924;SDS011;1977;52.274;10.518;2023-10-13T01:58:35;9.27;;;8.37;;
3924;SDS011;1977;52.274;10.518;2023-10-13T02:01:02;9.77;;;7.73;;
3924;SDS011;1977;52.274;10.518;2023-10-13T02:03:30;9.90;;;8.00;;
3924;SDS011;1977;52.274;10.518;2023-10-13T02:05:55;10.93;;;7.70;;
3924;SDS011;1977;52.274;10.518;2023-10-13T02:08:29;7.83;;;7.13;;
3924;SDS011;1977;52.274;10.518;2023-10-13T02:10:56;10.60;;;8.43;;
3924;SDS011;1977;52.274;10.518;2023-10-13T02:13:24;9.73;;;8.73;;
3924;SDS011;1977;52.274;10.518;2023-10-13T02:15:54;10.17;;;7.40;;
3924;SDS011;1977;52.274;10.518;2023-10-13T02:18:22;10.00;;;8.30;;
3924;SDS011;1977;52.274;10.518;2023-10-13T02:20:51;11.80;;;7.40;;
3924;SDS011;1977;52.274;10.518;2023-10-13T02:23:20;10.47;;;7.77;;
3924;SDS011;1977;52.274;10.518;2023-10-13T02:25:47;9.33;;;8.43;;
3924;SDS011;1977;52.274;10.518;2023-10-13T02:28:17;8.37;;;7.00;;
3924;SDS011;1977;52.274;10.518;2023-10-13T02:30:47;8.53;;;7.67;;
3924;SDS011;1977;52.274;10.518;2023-10-13T02:33:17;9.13;;;8.23;;
3924;SDS011;1977;52.274;10.518;2023-10-13T02:35:47;9.23;;;8.33;;
3924;SDS011;1977;52.274;10.518;2023-10-13T02:38:18;7.63;;;6.93;;
3924;SDS011;1977;52.274;10.518;2023-10-13T02:40:53;8.47;;;7.60;;
3924;SDS011;1977;52.274;10.518;2023-10-13T02:43:21;8.40;;;7.70;;
3924;SDS011;1977;52.274;10.518;2023-10-13T02:45:55;8.10;;;7.30;;
3924;SDS011;1977;52.274;10.518;2023-10-13T02:48:25;8.20;;;7.40;;
3924;SDS011;1977;52.274;10.518;2023-10-13T02:50:55;8.63;;;7.70;;
3924;SDS011;1977;52.274;10.518;2023-10-13T02:53:27;8.20;;;7.40;;
3924;SDS011;1977;52.274;10.518;2023-10-13T02:55:54;7.87;;;7.07;;
3924;SDS011;1977;52.274;10.518;2023-10-13T02:58:23;8.27;;;7.47;;
3924;SDS011;1977;52.274;10.518;2023-10-13T03:01:03;8.17;;;7.37;;
3924;SDS011;1977;52.274;10.518;2023-10-13T03:03:43;7.87;;;7.07;;
3924;SDS011;1977;52.274;10.518;2023-10-13T03:06:13;7.90;;;7.07;;
3924;SDS011;1977;52.274;10.518;2023-10-13T03:08:40;7.47;;;6.87;;
3924;SDS011;1977;52.274;10.518;2023-10-13T03:11:08;8.20;;;7.40;;
3924;SDS011;1977;52.274;10.518;2023-10-13T03:13:36;8.23;;;7.17;;
3924;SDS011;1977;52.274;10.518;2023-10-13T03:16:10;8.23;;;7.33;;
3924;SDS011;1977;52.274;10.518;2023-10-13T03:18:40;6.93;;;6.33;;
3924;SDS011;1977;52.274;10.518;2023-10-13T03:21:17;7.27;;;6.67;;
3924;SDS011;1977;52.274;10.518;2023-10-13T03:23:53;7.40;;;6.80;;
3924;SDS011;1977;52.274;10.518;2023-10-13T03:26:20;6.97;;;6.37;;
3924;SDS011;1977;52.274;10.518;2023-10-13T03:28:47;8.17;;;7.23;;
3924;SDS011;1977;52.274;10.518;2023-10-13T03:31:17;7.50;;;6.80;;
3924;SDS011;1977;52.274;10.518;2023-10-13T03:33:48;8.60;;;6.97;;
3924;SDS011;1977;52.274;10.518;2023-10-13T03:36:23;8.80;;;7.07;;
3924;SDS011;1977;52.274;10.518;2023-10-13T03:39:21;7.87;;;7.27;;
3924;SDS011;1977;52.274;10.518;2023-10-13T03:41:53;8.33;;;7.53;;
3924;SDS011;1977;52.274;10.518;2023-10-13T03:44:20;8.10;;;7.40;;
3924;SDS011;1977;52.274;10.518;2023-10-13T03:46:47;8.27;;;7.53;;
3924;SDS011;1977;52.274;10.518;2023-10-13T03:49:14;8.00;;;7.20;;
3924;SDS011;1977;52.274;10.518;2023-10-13T03:51:47;7.10;;;6.50;;
3924;SDS011;1977;52.274;10.518;2023-10-13T03:54:15;7.93;;;7.23;;
3924;SDS011;1977;52.274;10.518;2023-10-13T03:56:43;6.40;;;5.90;;
3924;SDS011;1977;52.274;10.518;2023-10-13T03:59:10;7.97;;;6.30;;
3924;SDS011;1977;52.274;10.518;2023-10-13T04:01:44;7.17;;;6.47;;
3924;SDS011;1977;52.274;10.518;2023-10-13T04:04:23;7.80;;;7.00;;
3924;SDS011;1977;52.274;10.518;2023-10-13T04:07:00;9.10;;;7.53;;
3924;SDS011;1977;52.274;10.518;2023-10-13T04:09:51;11.77;;;7.13;;
3924;SDS011;1977;52.274;10.518;2023-10-13T04:12:35;7.80;;;7.00;;
3924;SDS011;1977;52.274;10.518;2023-10-13T04:15:19;7.87;;;7.13;;
3924;SDS011;1977;52.274;10.518;2023-10-13T04:17:48;7.60;;;6.90;;
3924;SDS011;1977;52.274;10.518;2023-10-13T04:20:16;8.50;;;7.60;;
3924;SDS011;1977;52.274;10.518;2023-10-13T04:22:59;7.30;;;6.70;;
3924;SDS011;1977;52.274;10.518;2023-10-13T04:25:44;9.50;;;8.20;;
3924;SDS011;1977;52.274;10.518;2023-10-13T04:28:29;8.30;;;7.50;;
3924;SDS011;1977;52.274;10.518;2023-10-13T04:31:15;8.63;;;7.73;;
3924;SDS011;1977;52.274;10.518;2023-10-13T04:34:05;9.23;;;7.80;;
3924;SDS011;1977;52.274;10.518;2023-10-13T04:36:40;9.80;;;8.77;;
3924;SDS011;1977;52.274;10.518;2023-10-13T04:39:12;9.80;;;8.33;;
3924;SDS011;1977;52.274;10.518;2023-10-13T04:41:54;9.93;;;8.27;;
3924;SDS011;1977;52.274;10.518;2023-10-13T04:44:23;9.53;;;8.50;;
3924;SDS011;1977;52.274;10.518;2023-10-13T04:47:08;10.60;;;8.90;;
3924;SDS011;1977;52.274;10.518;2023-10-13T04:49:42;9.20;;;8.30;;
3924;SDS011;1977;52.274;10.518;2023-10-13T04:52:17;8.80;;;7.90;;
3924;SDS011;1977;52.274;10.518;2023-10-13T04:55:04;9.40;;;8.40;;
3924;SDS011;1977;52.274;10.518;2023-10-13T04:58:08;10.00;;;8.90;;
3924;SDS011;1977;52.274;10.518;2023-10-13T05:00:39;9.27;;;8.30;;
3924;SDS011;1977;52.274;10.518;2023-10-13T05:03:40;8.57;;;7.73;;
3924;SDS011;1977;52.274;10.518;2023-10-13T05:06:19;10.57;;;7.67;;
3924;SDS011;1977;52.274;10.518;2023-10-13T05:09:03;9.97;;;8.70;;
3924;SDS011;1977;52.274;10.518;2023-10-13T05:11:49;9.10;;;8.20;;
3924;SDS011;1977;52.274;10.518;2023-10-13T05:14:33;8.50;;;7.70;;
3924;SDS011;1977;52.274;10.518;2023-10-13T05:17:17;8.00;;;7.20;;
3924;SDS011;1977;52.274;10.518;2023-10-13T05:20:10;9.00;;;8.10;;
3924;SDS011;1977;52.274;10.518;2023-10-13T05:22:54;9.33;;;8.40;;
3924;SDS011;1977;52.274;10.518;2023-10-13T05:25:38;9.33;;;7.80;;
3924;SDS011;1977;52.274;10.518;2023-10-13T05:28:24;9.83;;;8.40;;
3924;SDS011;1977;52.274;10.518;2023-10-13T05:31:08;9.50;;;8.50;;
3924;SDS011;1977;52.274;10.518;2023-10-13T05:33:53;9.33;;;8.43;;
3924;SDS011;1977;52.274;10.518;2023-10-13T05:36:37;12.50;;;9.23;;
3924;SDS011;1977;52.274;10.518;2023-10-13T05:39:22;9.70;;;8.90;;
3924;SDS011;1977;52.274;10.518;2023-10-13T05:42:07;8.53;;;7.73;;
3924;SDS011;1977;52.274;10.518;2023-10-13T05:44:52;9.30;;;8.30;;
3924;SDS011;1977;52.274;10.518;2023-10-13T05:47:42;8.13;;;7.33;;
3924;SDS011;1977;52.274;10.518;2023-10-13T05:50:26;8.60;;;7.80;;
3924;SDS011;1977;52.274;10.518;2023-10-13T05:53:15;11.87;;;7.53;;
3924;SDS011;1977;52.274;10.518;2023-10-13T05:56:03;8.37;;;7.57;;
3924;SDS011;1977;52.274;10.518;2023-10-13T05:58:47;9.73;;;8.23;;
3924;SDS011;1977;52.274;10.518;2023-10-13T06:01:34;9.07;;;8.17;;
3924;SDS011;1977;52.274;10.518;2023-10-13T06:04:18;8.20;;;7.40;;
3924;SDS011;1977;52.274;10.518;2023-10-13T06:07:02;12.40;;;9.13;;
3924;SDS011;1977;52.274;10.518;2023-10-13T06:09:45;10.07;;;8.47;;
3924;SDS011;1977;52.274;10.518;2023-10-13T06:12:30;11.77;;;7.90;;
3924;SDS011;1977;52.274;10.518;2023-10-13T06:15:14;10.20;;;7.30;;
3924;SDS011;1977;52.274;10.518;2023-10-13T06:17:59;9.33;;;6.73;;
3924;SDS011;1977;52.274;10.518;2023-10-13T06:20:44;8.43;;;7.57;;
3924;SDS011;1977;52.274;10.518;2023-10-13T06:23:28;8.17;;;7.20;;
3924;SDS011;1977;52.274;10.518;2023-10-13T06:26:12;8.63;;;7.13;;
3924;SDS011;1977;52.274;10.518;2023-10-13T06:28:56;8.93;;;8.03;;
3924;SDS011;1977;52.274;10.518;2023-10-13T06:31:23;10.70;;;7.90;;
3924;SDS011;1977;52.274;10.518;2023-10-13T06:33:52;9.70;;;7.67;;
3924;SDS011;1977;52.274;10.518;2023-10-13T06:36:20;9.40;;;8.43;;
3924;SDS011;1977;52.274;10.518;2023-10-13T06:38:47;8.03;;;7.23;;
3924;SDS011;1977;52.274;10.518;2023-10-13T06:41:20;8.93;;;8.13;;
3924;SDS011;1977;52.274;10.518;2023-10-13T06:43:55;8.87;;;7.97;;
3924;SDS011;1977;52.274;10.518;2023-10-13T06:46:28;7.70;;;6.90;;
3924;SDS011;1977;52.274;10.518;2023-10-13T06:49:00;8.13;;;7.33;;
3924;SDS011;1977;52.274;10.518;2023-10-13T06:51:27;7.23;;;6.50;;
3924;SDS011;1977;52.274;10.518;2023-10-13T06:54:02;12.83;;;7.97;;
3924;SDS011;1977;52.274;10.518;2023-10-13T06:56:34;9.50;;;7.10;;
3924;SDS011;1977;52.274;10.518;2023-10-13T06:59:04;10.00;;;7.83;;
3924;SDS011;1977;52.274;10.518;2023-10-13T07:01:31;9.30;;;8.40;;
3924;SDS011;1977;52.274;10.518;2023-10-13T07:04:04;8.83;;;8.00;;
3924;SDS011;1977;52.274;10.518;2023-10-13T07:06:38;9.57;;;8.57;;
3924;SDS011;1977;52.274;10.518;2023-10-13T07:09:09;10.70;;;8.17;;
3924;SDS011;1977;52.274;10.518;2023-10-13T07:11:53;10.57;;;7.97;;
3924;SDS011;1977;52.274;10.518;2023-10-13T07:14:19;9.67;;;8.73;;
3924;SDS011;1977;52.274;10.518;2023-10-13T07:16:55;10.53;;;8.47;;
3924;SDS011;1977;52.274;10.518;2023-10-13T07:19:25;9.60;;;8.20;;
3924;SDS011;1977;52.274;10.518;2023-10-13T07:21:53;10.33;;;8.90;;
3924;SDS011;1977;52.274;10.518;2023-10-13T07:24:23;10.17;;;8.67;;
3924;SDS011;1977;52.274;10.518;2023-10-13T07:26:51;9.97;;;7.23;;
3924;SDS011;1977;52.274;10.518;2023-10-13T07:29:27;8.53;;;7.73;;
3924;SDS011;1977;52.274;10.518;2023-10-13T07:31:54;8.00;;;7.30;;
3924;SDS011;1977;52.274;10.518;2023-10-13T07:34:20;8.00;;;6.80;;
3924;SDS011;1977;52.274;10.518;2023-10-13T07:36:53;8.90;;;8.00;;
3924;SDS011;1977;52.274;10.518;2023-10-13T07:39:24;7.43;;;6.83;;
3924;SDS011;1977;52.274;10.518;2023-10-13T07:41:51;7.30;;;6.70;;
3924;SDS011;1977;52.274;10.518;2023-10-13T07:44:21;7.10;;;6.50;;
3924;SDS011;1977;52.274;10.518;2023-10-13T07:46:50;7.80;;;7.10;;
3924;SDS011;1977;52.274;10.518;2023-10-13T07:49:25;8.57;;;6.60;;
3924;SDS011;1977;52.274;10.518;2023-10-13T07:51:58;9.80;;;6.90;;
3924;SDS011;1977;52.274;10.518;2023-10-13T07:54:41;7.43;;;6.73;;
3924;SDS011;1977;52.274;10.518;2023-10-13T07:57:12;7.20;;;5.97;;
3924;SDS011;1977;52.274;10.518;2023-10-13T07:59:40;9.23;;;6.60;;
3924;SDS011;1977;52.274;10.518;2023-10-13T08:02:13;6.90;;;6.30;;
3924;SDS011;1977;52.274;10.518;2023-10-13T08:04:58;10.10;;;7.60;;
3924;SDS011;1977;52.274;10.518;2023-10-13T08:07:28;7.17;;;6.57;;
3924;SDS011;1977;52.274;10.518;2023-10-13T08:09:56;7.07;;;6.40;;
3924;SDS011;1977;52.274;10.518;2023-10-13T08:12:24;7.73;;;7.13;;
3924;SDS011;1977;52.274;10.518;2023-10-13T08:14:51;8.73;;;7.80;;
3924;SDS011;1977;52.274;10.518;2023-10-13T08:17:36;7.33;;;6.60;;
3924;SDS011;1977;52.274;10.518;2023-10-13T08:20:03;8.73;;;6.90;;
3924;SDS011;1977;52.274;10.518;2023-10-13T08:22:38;9.80;;;7.43;;
3924;SDS011;1977;52.274;10.518;2023-10-13T08:25:12;7.27;;;6.57;;
3924;SDS011;1977;52.274;10.518;2023-10-13T08:27:45;7.77;;;6.80;;
3924;SDS011;1977;52.274;10.518;2023-10-13T08:30:30;9.30;;;6.77;;
3924;SDS011;1977;52.274;10.518;2023-10-13T08:33:01;9.70;;;6.77;;
3924;SDS011;1977;52.274;10.518;2023-10-13T08:35:41;7.47;;;6.77;;
3924;SDS011;1977;52.274;10.518;2023-10-13T08:38:21;9.33;;;7.47;;
3924;SDS011;1977;52.274;10.518;2023-10-13T08:40:54;8.33;;;6.13;;
3924;SDS011;1977;52.274;10.518;2023-10-13T08:43:42;7.10;;;6.40;;
3924;SDS011;1977;52.274;10.518;2023-10-13T08:46:15;6.77;;;6.13;;
3924;SDS011;1977;52.274;10.518;2023-10-13T08:48:59;7.53;;;6.83;;
3924;SDS011;1977;52.274;10.518;2023-10-13T08:51:42;7.00;;;6.30;;
3924;SDS011;1977;52.274;10.518;2023-10-13T08:54:15;7.60;;;6.90;;
3924;SDS011;1977;52.274;10.518;2023-10-13T08:56:58;8.07;;;7.10;;
3924;SDS011;1977;52.274;10.518;2023-10-13T08:59:31;7.17;;;6.60;;
3924;SDS011;1977;52.274;10.518;2023-10-13T09:02:08;7.20;;;6.50;;
3924;SDS011;1977;52.274;10.518;2023-10-13T09:04:43;8.30;;;6.23;;
3924;SDS011;1977;52.274;10.518;2023-10-13T09:07:10;7.90;;;5.93;;
3924;SDS011;1977;52.274;10.518;2023-10-13T09:09:46;6.50;;;5.90;;
3924;SDS011;1977;52.274;10.518;2023-10-13T09:12:36;6.27;;;5.43;;
3924;SDS011;1977;52.274;10.518;2023-10-13T09:15:05;5.83;;;5.30;;
3924;SDS011;1977;52.274;10.518;2023-10-13T09:17:49;5.90;;;5.30;;
3924;SDS011;1977;52.274;10.518;2023-10-13T09:20:38;5.83;;;4.80;;
3924;SDS011;1977;52.274;10.518;2023-10-13T09:23:09;6.73;;;6.13;;
3924;SDS011;1977;52.274;10.518;2023-10-13T09:25:39;5.80;;;5.20;;
3924;SDS011;1977;52.274;10.518;2023-10-13T09:28:18;5.40;;;4.90;;
3924;SDS011;1977;52.274;10.518;2023-10-13T09:30:47;5.20;;;4.80;;
3924;SDS011;1977;52.274;10.518;2023-10-13T09:33:18;6.60;;;4.63;;
3924;SDS011;1977;52.274;10.518;2023-10-13T09:35:53;5.93;;;5.00;;
3924;SDS011;1977;52.274;10.518;2023-10-13T09:38:19;5.60;;;5.10;;
3924;SDS011;1977;52.274;10.518;2023-10-13T09:40:48;6.53;;;4.70;;
3924;SDS011;1977;52.274;10.518;2023-10-13T09:43:16;5.97;;;5.37;;
3924;SDS011;1977;52.274;10.518;2023-10-13T09:45:43;5.73;;;5.13;;
3924;SDS011;1977;52.274;10.518;2023-10-13T09:48:27;6.90;;;5.70;;
3924;SDS011;1977;52.274;10.518;2023-10-13T09:50:58;9.50;;;5.83;;
3924;SDS011;1977;52.274;10.518;2023-10-13T09:53:26;6.43;;;5.73;;
3924;SDS011;1977;52.274;10.518;2023-10-13T09:55:56;6.70;;;6.00;;
3924;SDS011;1977;52.274;10.518;2023-10-13T09:58:36;6.67;;;5.97;;
3924;SDS011;1977;52.274;10.518;2023-10-13T10:01:12;5.70;;;4.40;;
3924;SDS011;1977;52.274;10.518;2023-10-13T10:03:46;6.37;;;4.60;;
3924;SDS011;1977;52.274;10.518;2023-10-13T10:06:21;4.63;;;4.33;;
3924;SDS011;1977;52.274;10.518;2023-10-13T10:08:53;5.90;;;4.77;;
3924;SDS011;1977;52.274;10.518;2023-10-13T10:11:52;5.60;;;4.83;;
3924;SDS011;1977;52.274;10.518;2023-10-13T10:14:46;7.53;;;4.80;;
3924;SDS011;1977;52.274;10.518;2023-10-13T10:17:38;5.23;;;4.73;;
3924;SDS011;1977;52.274;10.518;2023-10-13T10:20:06;8.27;;;5.00;;
3924;SDS011;1977;52.274;10.518;2023-10-13T10:22:54;5.60;;;5.00;;
3924;SDS011;1977;52.274;10.518;2023-10-13T10:25:28;7.23;;;5.27;;
3924;SDS011;1977;52.274;10.518;2023-10-13T10:28:01;5.30;;;4.80;;
3924;SDS011;1977;52.274;10.518;2023-10-13T10:30:31;5.77;;;4.70;;
3924;SDS011;1977;52.274;10.518;2023-10-13T10:32:58;7.93;;;5.30;;
3924;SDS011;1977;52.274;10.518;2023-10-13T10:35:33;6.83;;;5.47;;
3924;SDS011;1977;52.274;10.518;2023-10-13T10:38:14;6.33;;;5.70;;
3924;SDS011;1977;52.274;10.518;2023-10-13T10:40:49;7.23;;;5.33;;
3924;SDS011;1977;52.274;10.518;2023-10-13T10:43:23;6.40;;;5.63;;
3924;SDS011;1977;52.274;10.518;2023-10-13T10:45:53;6.57;;;5.90;;
3924;SDS011;1977;52.274;10.518;2023-10-13T10:48:24;9.90;;;5.70;;
3924;SDS011;1977;52.274;10.518;2023-10-13T10:50:59;9.17;;;5.87;;
3924;SDS011;1977;52.274;10.518;2023-10-13T10:53:33;5.50;;;5.00;;
3924;SDS011;1977;52.274;10.518;2023-10-13T10:56:08;6.80;;;6.13;;
3924;SDS011;1977;52.274;10.518;2023-10-13T10:59:03;9.93;;;6.30;;
3924;SDS011;1977;52.274;10.518;2023-10-13T11:01:42;7.63;;;5.63;;
3924;SDS011;1977;52.274;10.518;2023-10-13T11:04:12;10.43;;;5.60;;
3924;SDS011;1977;52.274;10.518;2023-10-13T11:06:47;8.90;;;6.10;;
3924;SDS011;1977;52.274;10.518;2023-10-13T11:09:14;9.83;;;6.73;;
3924;SDS011;1977;52.274;10.518;2023-10-13T11:11:56;6.57;;;6.00;;
3924;SDS011;1977;52.274;10.518;2023-10-13T11:14:41;9.93;;;5.83;;
3924;SDS011;1977;52.274;10.518;2023-10-13T11:17:08;6.70;;;6.00;;
3924;SDS011;1977;52.274;10.518;2023-10-13T11:19:44;8.83;;;5.83;;
3924;SDS011;1977;52.274;10.518;2023-10-13T11:22:11;8.77;;;6.07;;
3924;SDS011;1977;52.274;10.518;2023-10-13T11:24:54;11.60;;;6.13;;
3924;SDS011;1977;52.274;10.518;2023-10-13T11:27:27;8.10;;;5.53;;
3924;SDS011;1977;52.274;10.518;2023-10-13T11:30:10;7.90;;;5.73;;
3924;SDS011;1977;52.274;10.518;2023-10-13T11:32:39;6.57;;;5.87;;
3924;SDS011;1977;52.274;10.518;2023-10-13T11:35:07;9.50;;;6.17;;
3924;SDS011;1977;52.274;10.518;2023-10-13T11:37:35;8.67;;;5.77;;
3924;SDS011;1977;52.274;10.518;2023-10-13T11:40:03;8.47;;;6.70;;
3924;SDS011;1977;52.274;10.518;2023-10-13T11:42:34;6.90;;;5.37;;
3924;SDS011;1977;52.274;10.518;2023-10-13T11:45:02;10.60;;;6.33;;
3924;SDS011;1977;52.274;10.518;2023-10-13T11:47:50;8.13;;;5.80;;
3924;SDS011;1977;52.274;10.518;2023-10-13T11:50:24;11.67;;;6.00;;
3924;SDS011;1977;52.274;10.518;2023-10-13T11:52:57;9.60;;;5.33;;
3924;SDS011;1977;52.274;10.518;2023-10-13T11:55:25;9.23;;;6.07;;
3924;SDS011;1977;52.274;10.518;2023-10-13T11:57:52;8.00;;;6.30;;
3924;SDS011;1977;52.274;10.518;2023-10-13T12:00:19;8.67;;;6.10;;
3924;SDS011;1977;52.274;10.518;2023-10-13T12:02:54;6.70;;;5.90;;
3924;SDS011;1977;52.274;10.518;2023-10-13T12:05:38;7.40;;;6.47;;
3924;SDS011;1977;52.274;10.518;2023-10-13T12:08:31;7.90;;;6.40;;
3924;SDS011;1977;52.274;10.518;2023-10-13T12:11:03;6.43;;;5.53;;
3924;SDS011;1977;52.274;10.518;2023-10-13T12:13:55;9.07;;;6.30;;
3924;SDS011;1977;52.274;10.518;2023-10-13T12:16:22;11.90;;;6.70;;
3924;SDS011;1977;52.274;10.518;2023-10-13T12:19:00;14.17;;;6.30;;
3924;SDS011;1977;52.274;10.518;2023-10-13T12:21:27;7.87;;;6.33;;
3924;SDS011;1977;52.274;10.518;2023-10-13T12:23:54;10.47;;;6.50;;
3924;SDS011;1977;52.274;10.518;2023-10-13T12:26:21;9.90;;;6.67;;
3924;SDS011;1977;52.274;10.518;2023-10-13T12:28:57;10.00;;;6.07;;
3924;SDS011;1977;52.274;10.518;2023-10-13T12:31:31;7.20;;;5.50;;
3924;SDS011;1977;52.274;10.518;2023-10-13T12:34:05;6.90;;;6.30;;
3924;SDS011;1977;52.274;10.518;2023-10-13T12:36:39;11.77;;;6.40;;
3924;SDS011;1977;52.274;10.518;2023-10-13T12:39:07;10.87;;;7.00;;
3924;SDS011;1977;52.274;10.518;2023-10-13T12:41:51;12.27;;;6.70;;
3924;SDS011;1977;52.274;10.518;2023-10-13T12:44:35;11.23;;;6.60;;
3924;SDS011;1977;52.274;10.518;2023-10-13T12:47:33;10.73;;;6.30;;
3924;SDS011;1977;52.274;10.518;2023-10-13T12:50:34;8.03;;;6.40;;
3924;SDS011;1977;52.274;10.518;2023-10-13T12:53:09;6.60;;;6.00;;
3924;SDS011;1977;52.274;10.518;2023-10-13T12:55:39;9.90;;;7.10;;
3924;SDS011;1977;52.274;10.518;2023-10-13T12:58:06;12.10;;;6.67;;
3924;SDS011;1977;52.274;10.518;2023-10-13T13:00:33;7.23;;;6.10;;
3924;SDS011;1977;52.274;10.518;2023-10-13T13:03:00;14.80;;;6.97;;
3924;SDS011;1977;52.274;10.518;2023-10-13T13:05:37;9.83;;;6.83;;
3924;SDS011;1977;52.274;10.518;2023-10-13T13:08:09;7.73;;;6.60;;
3924;SDS011;1977;52.274;10.518;2023-10-13T13:10:37;8.10;;;6.10;;
3924;SDS011;1977;52.274;10.518;2023-10-13T13:13:06;9.97;;;7.20;;
3924;SDS011;1977;52.274;10.518;2023-10-13T13:15:34;10.83;;;6.23;;
3924;SDS011;1977;52.274;10.518;2023-10-13T13:18:00;12.53;;;6.97;;
3924;SDS011;1977;52.274;10.518;2023-10-13T13:20:38;8.37;;;6.50;;
3924;SDS011;1977;52.274;10.518;2023-10-13T13:23:09;7.93;;;7.13;;
3924;SDS011;1977;52.274;10.518;2023-10-13T13:25:37;11.20;;;7.93;;
3924;SDS011;1977;52.274;10.518;2023-10-13T13:28:07;20.00;;;8.23;;
3924;SDS011;1977;52.274;10.518;2023-10-13T13:30:35;8.60;;;6.87;;
3924;SDS011;1977;52.274;10.518;2023-10-13T13:33:03;16.30;;;7.50;;
3924;SDS011;1977;52.274;10.518;2023-10-13T13:35:40;9.10;;;6.20;;
3924;SDS011;1977;52.274;10.518;2023-10-13T13:38:08;12.23;;;6.70;;
3924;SDS011;1977;52.274;10.518;2023-10-13T13:40:41;9.97;;;6.93;;
3924;SDS011;1977;52.274;10.518;2023-10-13T13:43:14;15.00;;;7.30;;
3924;SDS011;1977;52.274;10.518;2023-10-13T13:45:56;11.30;;;6.53;;
3924;SDS011;1977;52.274;10.518;2023-10-13T13:48:25;8.20;;;7.10;;
3924;SDS011;1977;52.274;10.518;2023-10-13T13:50:55;9.63;;;7.80;;
3924;SDS011;1977;52.274;10.518;2023-10-13T13:53:29;10.53;;;6.73;;
3924;SDS011;1977;52.274;10.518;2023-10-13T13:56:03;10.67;;;6.80;;
3924;SDS011;1977;52.274;10.518;2023-10-13T13:58:30;11.57;;;7.30;;
3924;SDS011;1977;52.274;10.518;2023-10-13T14:01:00;23.23;;;8.27;;
3924;SDS011;1977;52.274;10.518;2023-10-13T14:03:36;21.57;;;7.63;;
3924;SDS011;1977;52.274;10.518;2023-10-13T14:06:11;7.00;;;6.20;;
3924;SDS011;1977;52.274;10.518;2023-10-13T14:08:43;12.30;;;6.83;;
3924;SDS011;1977;52.274;10.518;2023-10-13T14:11:13;12.00;;;7.50;;
3924;SDS011;1977;52.274;10.518;2023-10-13T14:13:47;16.33;;;7.53;;
3924;SDS011;1977;52.274;10.518;2023-10-13T14:16:13;14.03;;;7.80;;
3924;SDS011;1977;52.274;10.518;2023-10-13T14:18:42;10.60;;;6.50;;
3924;SDS011;1977;52.274;10.518;2023-10-13T14:21:10;9.60;;;6.10;;
3924;SDS011;1977;52.274;10.518;2023-10-13T14:23:42;9.93;;;7.47;;
3924;SDS011;1977;52.274;10.518;2023-10-13T14:26:11;12.17;;;6.57;;
3924;SDS011;1977;52.274;10.518;2023-10-13T14:28:39;9.60;;;6.30;;
3924;SDS011;1977;52.274;10.518;2023-10-13T14:31:15;7.50;;;6.60;;
3924;SDS011;1977;52.274;10.518;2023-10-13T14:33:43;8.90;;;7.20;;
3924;SDS011;1977;52.274;10.518;2023-10-13T14:36:12;9.87;;;7.27;;
3924;SDS011;1977;52.274;10.518;2023-10-13T14:38:44;9.80;;;6.37;;
3924;SDS011;1977;52.274;10.518;2023-10-13T14:41:14;7.97;;;5.80;;
3924;SDS011;1977;52.274;10.518;2023-10-13T14:43:41;7.43;;;6.23;;
3924;SDS011;1977;52.274;10.518;2023-10-13T14:46:12;16.30;;;7.30;;
3924;SDS011;1977;52.274;10.518;2023-10-13T14:48:40;12.40;;;6.07;;
3924;SDS011;1977;52.274;10.518;2023-10-13T14:51:08;7.73;;;6.93;;
3924;SDS011;1977;52.274;10.518;2023-10-13T14:53:39;9.90;;;7.67;;
3924;SDS011;1977;52.274;10.518;2023-10-13T14:56:08;8.33;;;6.73;;
3924;SDS011;1977;52.274;10.518;2023-10-13T14:58:36;11.83;;;6.37;;
3924;SDS011;1977;52.274;10.518;2023-10-13T15:01:10;9.30;;;6.83;;
3924;SDS011;1977;52.274;10.518;2023-10-13T15:03:38;12.67;;;7.83;;
3924;SDS011;1977;52.274;10.518;2023-10-13T15:06:06;12.50;;;7.30;;
3924;SDS011;1977;52.274;10.518;2023-10-13T15:08:32;8.80;;;7.00;;
3924;SDS011;1977;52.274;10.518;2023-10-13T15:11:08;10.50;;;7.70;;
3924;SDS011;1977;52.274;10.518;2023-10-13T15:13:38;8.90;;;6.83;;
3924;SDS011;1977;52.274;10.518;2023-10-13T15:16:12;14.27;;;7.30;;
3924;SDS011;1977;52.274;10.518;2023-10-13T15:18:42;9.00;;;6.50;;
3924;SDS011;1977;52.274;10.518;2023-10-13T15:21:09;9.37;;;7.17;;
3924;SDS011;1977;52.274;10.518;2023-10-13T15:23:36;7.67;;;6.90;;
3924;SDS011;1977;52.274;10.518;2023-10-13T15:26:08;15.33;;;7.10;;
3924;SDS011;1977;52.274;10.518;2023-10-13T15:28:37;9.03;;;8.13;;
3924;SDS011;1977;52.274;10.518;2023-10-13T15:31:13;9.50;;;6.67;;
3924;SDS011;1977;52.274;10.518;2023-10-13T15:33:51;9.23;;;7.93;;
3924;SDS011;1977;52.274;10.518;2023-10-13T15:36:20;10.03;;;7.50;;
3924;SDS011;1977;52.274;10.518;2023-10-13T15:38:48;9.00;;;7.30;;